sensor_id;sensor_type;location;lat;lon;timestamp;P1;durP1;ratioP1;P2;durP2;ratioP2
46765;SDS011;32527;51.986;5.842;2023-07-31T00:00:30;10.35;;;9.65;;
46765;SDS011;32527;51.986;5.842;2023-07-31T00:02:56;9.77;;;9.13;;
46765;SDS011;32527;51.986;5.842;2023-07-31T00:05:22;9.95;;;9.25;;
46765;SDS011;32527;51.986;5.842;2023-07-31T00:07:48;10.45;;;9.77;;
46765;SDS011;32527;51.986;5.842;2023-07-31T00:10:14;10.30;;;9.70;;
46765;SDS011;32527;51.986;5.842;2023-07-31T00:12:42;11.57;;;10.88;;
46765;SDS011;32527;51.986;5.842;2023-07-31T00:15:08;10.75;;;10.15;;
46765;SDS011;32527;51.986;5.842;2023-07-31T00:17:34;11.77;;;11.00;;
46765;SDS011;32527;51.986;5.842;2023-07-31T00:20:01;9.55;;;8.95;;
46765;SDS011;32527;51.986;5.842;2023-07-31T00:22:27;10.77;;;10.15;;
46765;SDS011;32527;51.986;5.842;2023-07-31T00:24:53;11.02;;;10.32;;
46765;SDS011;32527;51.986;5.842;2023-07-31T00:27:19;9.93;;;9.32;;
46765;SDS011;32527;51.986;5.842;2023-07-31T00:29:45;10.50;;;9.90;;
46765;SDS011;32527;51.986;5.842;2023-07-31T00:32:11;12.25;;;11.35;;
46765;SDS011;32527;51.986;5.842;2023-07-31T00:34:37;11.10;;;10.43;;
46765;SDS011;32527;51.986;5.842;2023-07-31T00:37:03;9.77;;;9.18;;
46765;SDS011;32527;51.986;5.842;2023-07-31T00:39:30;8.77;;;8.18;;
46765;SDS011;32527;51.986;5.842;2023-07-31T00:41:56;11.18;;;10.20;;
46765;SDS011;32527;51.986;5.842;2023-07-31T00:44:22;10.00;;;9.40;;
46765;SDS011;32527;51.986;5.842;2023-07-31T00:46:48;11.30;;;10.60;;
46765;SDS011;32527;51.986;5.842;2023-07-31T00:49:15;9.98;;;9.27;;
46765;SDS011;32527;51.986;5.842;2023-07-31T00:51:41;9.30;;;8.55;;
46765;SDS011;32527;51.986;5.842;2023-07-31T00:54:07;9.80;;;9.10;;
46765;SDS011;32527;51.986;5.842;2023-07-31T00:56:33;10.52;;;9.50;;
46765;SDS011;32527;51.986;5.842;2023-07-31T00:59:00;10.75;;;9.95;;
46765;SDS011;32527;51.986;5.842;2023-07-31T01:01:26;12.25;;;8.85;;
46765;SDS011;32527;51.986;5.842;2023-07-31T01:03:52;12.38;;;10.05;;
46765;SDS011;32527;51.986;5.842;2023-07-31T01:12:01;12.25;;;9.63;;
46765;SDS011;32527;51.986;5.842;2023-07-31T01:14:27;19.30;;;9.20;;
46765;SDS011;32527;51.986;5.842;2023-07-31T01:16:54;14.98;;;8.55;;
46765;SDS011;32527;51.986;5.842;2023-07-31T01:19:24;11.10;;;9.02;;
46765;SDS011;32527;51.986;5.842;2023-07-31T01:22:04;18.02;;;9.55;;
46765;SDS011;32527;51.986;5.842;2023-07-31T01:27:53;20.45;;;10.25;;
46765;SDS011;32527;51.986;5.842;2023-07-31T01:30:31;13.05;;;8.25;;
46765;SDS011;32527;51.986;5.842;2023-07-31T01:33:02;15.60;;;9.20;;
46765;SDS011;32527;51.986;5.842;2023-07-31T01:35:36;15.93;;;9.68;;
46765;SDS011;32527;51.986;5.842;2023-07-31T01:38:03;10.80;;;7.78;;
46765;SDS011;32527;51.986;5.842;2023-07-31T01:40:30;13.50;;;9.05;;
46765;SDS011;32527;51.986;5.842;2023-07-31T01:42:56;12.82;;;8.98;;
46765;SDS011;32527;51.986;5.842;2023-07-31T01:45:22;11.82;;;9.00;;
46765;SDS011;32527;51.986;5.842;2023-07-31T01:47:48;18.73;;;10.23;;
46765;SDS011;32527;51.986;5.842;2023-07-31T01:50:15;14.75;;;8.35;;
46765;SDS011;32527;51.986;5.842;2023-07-31T01:52:41;10.57;;;8.70;;
46765;SDS011;32527;51.986;5.842;2023-07-31T01:55:07;18.23;;;8.43;;
46765;SDS011;32527;51.986;5.842;2023-07-31T01:57:33;17.02;;;8.32;;
46765;SDS011;32527;51.986;5.842;2023-07-31T02:00:00;26.67;;;9.40;;
46765;SDS011;32527;51.986;5.842;2023-07-31T02:02:26;16.55;;;9.27;;
46765;SDS011;32527;51.986;5.842;2023-07-31T02:04:52;20.65;;;11.52;;
46765;SDS011;32527;51.986;5.842;2023-07-31T02:07:18;12.90;;;8.43;;
46765;SDS011;32527;51.986;5.842;2023-07-31T02:09:44;18.45;;;10.23;;
46765;SDS011;32527;51.986;5.842;2023-07-31T02:12:12;17.85;;;9.45;;
46765;SDS011;32527;51.986;5.842;2023-07-31T02:14:39;16.33;;;9.25;;
46765;SDS011;32527;51.986;5.842;2023-07-31T02:17:06;20.70;;;7.50;;
46765;SDS011;32527;51.986;5.842;2023-07-31T02:19:32;11.45;;;9.13;;
46765;SDS011;32527;51.986;5.842;2023-07-31T02:21:58;10.07;;;7.25;;
46765;SDS011;32527;51.986;5.842;2023-07-31T02:24:24;10.50;;;8.20;;
46765;SDS011;32527;51.986;5.842;2023-07-31T02:26:50;13.23;;;8.63;;
46765;SDS011;32527;51.986;5.842;2023-07-31T02:29:16;11.00;;;7.40;;
46765;SDS011;32527;51.986;5.842;2023-07-31T02:31:43;13.57;;;7.90;;
46765;SDS011;32527;51.986;5.842;2023-07-31T02:34:10;12.30;;;8.10;;
46765;SDS011;32527;51.986;5.842;2023-07-31T02:36:36;10.65;;;7.22;;
46765;SDS011;32527;51.986;5.842;2023-07-31T02:39:02;10.65;;;8.32;;
46765;SDS011;32527;51.986;5.842;2023-07-31T02:41:28;10.45;;;7.63;;
46765;SDS011;32527;51.986;5.842;2023-07-31T02:43:54;7.50;;;6.57;;
46765;SDS011;32527;51.986;5.842;2023-07-31T02:46:20;9.57;;;6.75;;
46765;SDS011;32527;51.986;5.842;2023-07-31T02:48:49;13.00;;;8.27;;
46765;SDS011;32527;51.986;5.842;2023-07-31T02:51:15;11.40;;;7.25;;
46765;SDS011;32527;51.986;5.842;2023-07-31T02:53:42;12.93;;;8.13;;
46765;SDS011;32527;51.986;5.842;2023-07-31T02:56:08;10.32;;;8.55;;
46765;SDS011;32527;51.986;5.842;2023-07-31T02:58:34;9.02;;;7.63;;
46765;SDS011;32527;51.986;5.842;2023-07-31T03:01:03;12.00;;;7.53;;
46765;SDS011;32527;51.986;5.842;2023-07-31T03:03:29;16.70;;;8.98;;
46765;SDS011;32527;51.986;5.842;2023-07-31T03:05:55;11.80;;;5.93;;
46765;SDS011;32527;51.986;5.842;2023-07-31T03:08:21;10.52;;;6.82;;
46765;SDS011;32527;51.986;5.842;2023-07-31T03:10:48;11.82;;;6.60;;
46765;SDS011;32527;51.986;5.842;2023-07-31T03:13:14;18.92;;;8.88;;
46765;SDS011;32527;51.986;5.842;2023-07-31T03:15:43;12.60;;;8.38;;
46765;SDS011;32527;51.986;5.842;2023-07-31T03:18:09;20.42;;;8.68;;
46765;SDS011;32527;51.986;5.842;2023-07-31T03:20:35;16.75;;;10.82;;
46765;SDS011;32527;51.986;5.842;2023-07-31T03:23:01;10.57;;;7.97;;
46765;SDS011;32527;51.986;5.842;2023-07-31T03:25:27;15.98;;;7.93;;
46765;SDS011;32527;51.986;5.842;2023-07-31T03:27:53;13.30;;;8.00;;
46765;SDS011;32527;51.986;5.842;2023-07-31T03:30:19;9.73;;;8.45;;
46765;SDS011;32527;51.986;5.842;2023-07-31T03:32:45;16.23;;;8.40;;
46765;SDS011;32527;51.986;5.842;2023-07-31T03:35:12;21.52;;;8.68;;
46765;SDS011;32527;51.986;5.842;2023-07-31T03:37:38;17.67;;;7.43;;
46765;SDS011;32527;51.986;5.842;2023-07-31T03:40:04;16.67;;;7.85;;
46765;SDS011;32527;51.986;5.842;2023-07-31T03:42:30;10.30;;;8.23;;
46765;SDS011;32527;51.986;5.842;2023-07-31T03:44:56;14.48;;;8.27;;
46765;SDS011;32527;51.986;5.842;2023-07-31T03:47:22;13.05;;;8.35;;
46765;SDS011;32527;51.986;5.842;2023-07-31T03:49:48;15.43;;;7.72;;
46765;SDS011;32527;51.986;5.842;2023-07-31T03:52:14;19.50;;;7.50;;
46765;SDS011;32527;51.986;5.842;2023-07-31T03:54:40;18.45;;;8.43;;
46765;SDS011;32527;51.986;5.842;2023-07-31T03:57:09;13.55;;;9.20;;
46765;SDS011;32527;51.986;5.842;2023-07-31T03:59:35;8.10;;;7.28;;
46765;SDS011;32527;51.986;5.842;2023-07-31T04:02:03;8.20;;;7.40;;
46765;SDS011;32527;51.986;5.842;2023-07-31T04:04:29;11.02;;;9.02;;
46765;SDS011;32527;51.986;5.842;2023-07-31T04:06:55;14.25;;;8.05;;
46765;SDS011;32527;51.986;5.842;2023-07-31T04:09:21;13.45;;;7.57;;
46765;SDS011;32527;51.986;5.842;2023-07-31T04:11:47;9.20;;;7.93;;
46765;SDS011;32527;51.986;5.842;2023-07-31T04:14:13;20.40;;;7.50;;
46765;SDS011;32527;51.986;5.842;2023-07-31T04:16:39;11.13;;;8.90;;
46765;SDS011;32527;51.986;5.842;2023-07-31T04:19:05;12.32;;;7.78;;
46765;SDS011;32527;51.986;5.842;2023-07-31T04:21:31;16.13;;;8.95;;
46765;SDS011;32527;51.986;5.842;2023-07-31T04:23:57;17.15;;;9.73;;
46765;SDS011;32527;51.986;5.842;2023-07-31T04:26:24;12.73;;;8.00;;
46765;SDS011;32527;51.986;5.842;2023-07-31T04:28:50;9.48;;;8.60;;
46765;SDS011;32527;51.986;5.842;2023-07-31T04:31:16;13.77;;;8.65;;
46765;SDS011;32527;51.986;5.842;2023-07-31T04:33:42;11.20;;;7.63;;
46765;SDS011;32527;51.986;5.842;2023-07-31T04:36:08;18.60;;;9.82;;
46765;SDS011;32527;51.986;5.842;2023-07-31T04:38:34;13.40;;;10.20;;
46765;SDS011;32527;51.986;5.842;2023-07-31T04:41:00;9.82;;;8.30;;
46765;SDS011;32527;51.986;5.842;2023-07-31T04:43:26;7.93;;;7.13;;
46765;SDS011;32527;51.986;5.842;2023-07-31T04:45:52;9.38;;;7.90;;
46765;SDS011;32527;51.986;5.842;2023-07-31T04:48:19;14.30;;;7.93;;
46765;SDS011;32527;51.986;5.842;2023-07-31T04:50:45;12.82;;;8.18;;
46765;SDS011;32527;51.986;5.842;2023-07-31T04:53:11;17.60;;;9.10;;
46765;SDS011;32527;51.986;5.842;2023-07-31T04:55:37;12.50;;;8.05;;
46765;SDS011;32527;51.986;5.842;2023-07-31T04:58:03;10.55;;;8.93;;
46765;SDS011;32527;51.986;5.842;2023-07-31T05:00:29;10.57;;;8.50;;
46765;SDS011;32527;51.986;5.842;2023-07-31T05:02:55;11.30;;;8.88;;
46765;SDS011;32527;51.986;5.842;2023-07-31T05:05:21;17.42;;;8.05;;
46765;SDS011;32527;51.986;5.842;2023-07-31T05:07:47;12.85;;;9.52;;
46765;SDS011;32527;51.986;5.842;2023-07-31T05:10:13;11.38;;;9.50;;
46765;SDS011;32527;51.986;5.842;2023-07-31T05:12:39;15.13;;;9.18;;
46765;SDS011;32527;51.986;5.842;2023-07-31T05:15:05;15.48;;;9.82;;
46765;SDS011;32527;51.986;5.842;2023-07-31T05:17:31;13.88;;;9.25;;
46765;SDS011;32527;51.986;5.842;2023-07-31T05:19:57;11.88;;;10.35;;
46765;SDS011;32527;51.986;5.842;2023-07-31T05:22:24;13.27;;;10.30;;
46765;SDS011;32527;51.986;5.842;2023-07-31T05:24:50;18.27;;;11.07;;
46765;SDS011;32527;51.986;5.842;2023-07-31T05:27:16;11.63;;;10.32;;
46765;SDS011;32527;51.986;5.842;2023-07-31T05:29:43;10.65;;;9.77;;
46765;SDS011;32527;51.986;5.842;2023-07-31T05:32:10;16.20;;;10.45;;
46765;SDS011;32527;51.986;5.842;2023-07-31T05:34:36;15.50;;;9.93;;
46765;SDS011;32527;51.986;5.842;2023-07-31T05:37:02;11.73;;;8.88;;
46765;SDS011;32527;51.986;5.842;2023-07-31T05:39:28;12.38;;;9.50;;
46765;SDS011;32527;51.986;5.842;2023-07-31T05:41:54;11.77;;;8.40;;
46765;SDS011;32527;51.986;5.842;2023-07-31T05:44:20;11.50;;;9.60;;
46765;SDS011;32527;51.986;5.842;2023-07-31T05:46:46;10.77;;;9.63;;
46765;SDS011;32527;51.986;5.842;2023-07-31T05:49:12;9.25;;;8.35;;
46765;SDS011;32527;51.986;5.842;2023-07-31T05:51:38;10.07;;;8.80;;
46765;SDS011;32527;51.986;5.842;2023-07-31T05:54:04;14.57;;;9.50;;
46765;SDS011;32527;51.986;5.842;2023-07-31T05:56:30;9.68;;;8.23;;
46765;SDS011;32527;51.986;5.842;2023-07-31T05:58:58;12.52;;;8.85;;
46765;SDS011;32527;51.986;5.842;2023-07-31T06:01:24;11.07;;;8.68;;
46765;SDS011;32527;51.986;5.842;2023-07-31T06:03:50;10.15;;;9.18;;
46765;SDS011;32527;51.986;5.842;2023-07-31T06:06:16;10.07;;;9.07;;
46765;SDS011;32527;51.986;5.842;2023-07-31T06:08:42;9.95;;;8.32;;
46765;SDS011;32527;51.986;5.842;2023-07-31T06:11:08;10.25;;;9.35;;
46765;SDS011;32527;51.986;5.842;2023-07-31T06:13:35;10.00;;;7.95;;
46765;SDS011;32527;51.986;5.842;2023-07-31T06:16:01;10.80;;;8.38;;
46765;SDS011;32527;51.986;5.842;2023-07-31T06:18:30;8.63;;;7.82;;
46765;SDS011;32527;51.986;5.842;2023-07-31T06:20:56;8.77;;;7.63;;
46765;SDS011;32527;51.986;5.842;2023-07-31T06:23:22;8.48;;;7.65;;
46765;SDS011;32527;51.986;5.842;2023-07-31T06:25:49;7.53;;;6.93;;
46765;SDS011;32527;51.986;5.842;2023-07-31T06:28:15;12.02;;;7.90;;
46765;SDS011;32527;51.986;5.842;2023-07-31T06:30:41;15.20;;;8.30;;
46765;SDS011;32527;51.986;5.842;2023-07-31T06:33:07;8.70;;;7.80;;
46765;SDS011;32527;51.986;5.842;2023-07-31T06:35:34;9.43;;;7.43;;
46765;SDS011;32527;51.986;5.842;2023-07-31T06:38:00;12.52;;;7.28;;
46765;SDS011;32527;51.986;5.842;2023-07-31T06:40:27;9.48;;;8.13;;
46765;SDS011;32527;51.986;5.842;2023-07-31T06:42:53;12.35;;;7.72;;
46765;SDS011;32527;51.986;5.842;2023-07-31T06:45:19;8.32;;;7.45;;
46765;SDS011;32527;51.986;5.842;2023-07-31T06:47:47;7.90;;;6.97;;
46765;SDS011;32527;51.986;5.842;2023-07-31T06:50:13;7.45;;;6.63;;
46765;SDS011;32527;51.986;5.842;2023-07-31T06:52:39;9.70;;;8.82;;
46765;SDS011;32527;51.986;5.842;2023-07-31T06:55:18;6.93;;;6.32;;
46765;SDS011;32527;51.986;5.842;2023-07-31T06:57:45;6.68;;;6.03;;
46765;SDS011;32527;51.986;5.842;2023-07-31T07:00:11;8.77;;;7.95;;
46765;SDS011;32527;51.986;5.842;2023-07-31T07:02:38;6.38;;;5.72;;
46765;SDS011;32527;51.986;5.842;2023-07-31T07:05:04;7.75;;;6.93;;
46765;SDS011;32527;51.986;5.842;2023-07-31T07:07:31;7.30;;;6.63;;
46765;SDS011;32527;51.986;5.842;2023-07-31T07:09:57;6.28;;;5.68;;
46765;SDS011;32527;51.986;5.842;2023-07-31T07:12:25;6.40;;;5.80;;
46765;SDS011;32527;51.986;5.842;2023-07-31T07:14:51;5.93;;;5.43;;
46765;SDS011;32527;51.986;5.842;2023-07-31T07:17:18;6.30;;;5.70;;
46765;SDS011;32527;51.986;5.842;2023-07-31T07:19:44;6.78;;;5.07;;
46765;SDS011;32527;51.986;5.842;2023-07-31T07:22:13;5.03;;;4.63;;
46765;SDS011;32527;51.986;5.842;2023-07-31T07:24:39;6.45;;;5.75;;
46765;SDS011;32527;51.986;5.842;2023-07-31T07:27:05;5.15;;;4.80;;
46765;SDS011;32527;51.986;5.842;2023-07-31T07:29:31;6.00;;;5.55;;
46765;SDS011;32527;51.986;5.842;2023-07-31T07:31:57;6.18;;;5.68;;
46765;SDS011;32527;51.986;5.842;2023-07-31T07:34:25;6.30;;;5.80;;
46765;SDS011;32527;51.986;5.842;2023-07-31T07:36:52;5.65;;;5.25;;
46765;SDS011;32527;51.986;5.842;2023-07-31T07:39:18;5.68;;;5.18;;
46765;SDS011;32527;51.986;5.842;2023-07-31T07:41:45;5.63;;;5.18;;
46765;SDS011;32527;51.986;5.842;2023-07-31T07:44:11;5.93;;;4.85;;
46765;SDS011;32527;51.986;5.842;2023-07-31T07:46:38;5.35;;;4.93;;
46765;SDS011;32527;51.986;5.842;2023-07-31T07:49:04;5.43;;;4.97;;
46765;SDS011;32527;51.986;5.842;2023-07-31T07:51:30;5.05;;;4.65;;
46765;SDS011;32527;51.986;5.842;2023-07-31T07:53:56;4.93;;;4.53;;
46765;SDS011;32527;51.986;5.842;2023-07-31T07:56:23;5.88;;;5.40;;
46765;SDS011;32527;51.986;5.842;2023-07-31T07:58:49;4.75;;;4.32;;
46765;SDS011;32527;51.986;5.842;2023-07-31T08:01:16;4.85;;;4.47;;
46765;SDS011;32527;51.986;5.842;2023-07-31T08:03:42;6.45;;;5.88;;
46765;SDS011;32527;51.986;5.842;2023-07-31T08:06:08;7.10;;;5.65;;
46765;SDS011;32527;51.986;5.842;2023-07-31T08:08:35;5.07;;;4.68;;
46765;SDS011;32527;51.986;5.842;2023-07-31T08:11:01;5.95;;;5.55;;
46765;SDS011;32527;51.986;5.842;2023-07-31T08:13:27;5.28;;;4.88;;
46765;SDS011;32527;51.986;5.842;2023-07-31T08:15:53;5.15;;;4.70;;
46765;SDS011;32527;51.986;5.842;2023-07-31T08:18:19;5.07;;;4.68;;
46765;SDS011;32527;51.986;5.842;2023-07-31T08:20:45;5.25;;;4.85;;
46765;SDS011;32527;51.986;5.842;2023-07-31T08:23:11;5.30;;;4.80;;
46765;SDS011;32527;51.986;5.842;2023-07-31T08:25:37;5.72;;;5.22;;
46765;SDS011;32527;51.986;5.842;2023-07-31T08:28:04;5.13;;;4.63;;
46765;SDS011;32527;51.986;5.842;2023-07-31T08:30:30;6.00;;;5.15;;
46765;SDS011;32527;51.986;5.842;2023-07-31T08:32:56;4.93;;;4.53;;
46765;SDS011;32527;51.986;5.842;2023-07-31T08:35:23;5.80;;;5.30;;
46765;SDS011;32527;51.986;5.842;2023-07-31T08:37:49;5.00;;;4.57;;
46765;SDS011;32527;51.986;5.842;2023-07-31T08:40:16;5.07;;;4.68;;
46765;SDS011;32527;51.986;5.842;2023-07-31T08:42:45;5.55;;;4.93;;
46765;SDS011;32527;51.986;5.842;2023-07-31T08:45:16;5.15;;;4.75;;
46765;SDS011;32527;51.986;5.842;2023-07-31T08:47:44;5.53;;;5.03;;
46765;SDS011;32527;51.986;5.842;2023-07-31T08:50:12;5.47;;;4.97;;
46765;SDS011;32527;51.986;5.842;2023-07-31T08:52:38;5.28;;;4.82;;
46765;SDS011;32527;51.986;5.842;2023-07-31T08:55:05;5.00;;;4.60;;
46765;SDS011;32527;51.986;5.842;2023-07-31T08:57:31;8.13;;;7.32;;
46765;SDS011;32527;51.986;5.842;2023-07-31T09:00:00;5.13;;;4.63;;
46765;SDS011;32527;51.986;5.842;2023-07-31T09:02:27;4.82;;;4.43;;
46765;SDS011;32527;51.986;5.842;2023-07-31T09:04:57;5.88;;;5.25;;
46765;SDS011;32527;51.986;5.842;2023-07-31T09:07:23;5.30;;;4.80;;
46765;SDS011;32527;51.986;5.842;2023-07-31T09:09:50;5.97;;;5.38;;
46765;SDS011;32527;51.986;5.842;2023-07-31T09:12:16;5.70;;;5.15;;
46765;SDS011;32527;51.986;5.842;2023-07-31T09:14:42;5.80;;;5.28;;
46765;SDS011;32527;51.986;5.842;2023-07-31T09:17:11;6.28;;;5.68;;
46765;SDS011;32527;51.986;5.842;2023-07-31T09:19:37;4.85;;;4.45;;
46765;SDS011;32527;51.986;5.842;2023-07-31T09:22:03;6.97;;;5.60;;
46765;SDS011;32527;51.986;5.842;2023-07-31T09:24:30;5.28;;;4.78;;
46765;SDS011;32527;51.986;5.842;2023-07-31T09:26:58;7.85;;;6.18;;
46765;SDS011;32527;51.986;5.842;2023-07-31T09:29:24;5.18;;;4.75;;
46765;SDS011;32527;51.986;5.842;2023-07-31T09:31:51;6.55;;;5.95;;
46765;SDS011;32527;51.986;5.842;2023-07-31T09:34:18;6.47;;;5.82;;
46765;SDS011;32527;51.986;5.842;2023-07-31T09:36:47;6.25;;;5.68;;
46765;SDS011;32527;51.986;5.842;2023-07-31T09:39:14;6.78;;;6.07;;
46765;SDS011;32527;51.986;5.842;2023-07-31T09:41:45;6.32;;;5.78;;
46765;SDS011;32527;51.986;5.842;2023-07-31T09:44:11;7.43;;;6.53;;
46765;SDS011;32527;51.986;5.842;2023-07-31T09:46:37;7.95;;;7.15;;
46765;SDS011;32527;51.986;5.842;2023-07-31T09:51:30;8.05;;;7.25;;
46765;SDS011;32527;51.986;5.842;2023-07-31T09:53:56;7.95;;;7.22;;
46765;SDS011;32527;51.986;5.842;2023-07-31T09:56:22;6.88;;;6.00;;
46765;SDS011;32527;51.986;5.842;2023-07-31T09:58:49;7.30;;;6.60;;
46765;SDS011;32527;51.986;5.842;2023-07-31T10:01:15;17.25;;;7.05;;
46765;SDS011;32527;51.986;5.842;2023-07-31T10:03:41;7.93;;;6.78;;
46765;SDS011;32527;51.986;5.842;2023-07-31T10:06:08;9.90;;;7.43;;
46765;SDS011;32527;51.986;5.842;2023-07-31T10:08:35;10.43;;;7.28;;
46765;SDS011;32527;51.986;5.842;2023-07-31T10:11:02;7.40;;;6.70;;
46765;SDS011;32527;51.986;5.842;2023-07-31T10:13:28;8.55;;;7.63;;
46765;SDS011;32527;51.986;5.842;2023-07-31T10:15:56;10.82;;;8.10;;
46765;SDS011;32527;51.986;5.842;2023-07-31T10:18:24;9.30;;;8.38;;
46765;SDS011;32527;51.986;5.842;2023-07-31T10:20:51;9.00;;;8.13;;
46765;SDS011;32527;51.986;5.842;2023-07-31T10:23:17;12.23;;;7.72;;
46765;SDS011;32527;51.986;5.842;2023-07-31T10:25:44;10.27;;;7.93;;
46765;SDS011;32527;51.986;5.842;2023-07-31T10:28:10;9.90;;;8.18;;
46765;SDS011;32527;51.986;5.842;2023-07-31T10:30:36;9.25;;;8.35;;
46765;SDS011;32527;51.986;5.842;2023-07-31T10:33:03;12.70;;;8.13;;
46765;SDS011;32527;51.986;5.842;2023-07-31T10:35:31;8.43;;;6.72;;
46765;SDS011;32527;51.986;5.842;2023-07-31T10:38:08;9.75;;;8.60;;
46765;SDS011;32527;51.986;5.842;2023-07-31T10:40:38;8.77;;;7.63;;
46765;SDS011;32527;51.986;5.842;2023-07-31T10:43:04;12.55;;;8.45;;
46765;SDS011;32527;51.986;5.842;2023-07-31T10:45:34;10.13;;;8.32;;
46765;SDS011;32527;51.986;5.842;2023-07-31T10:48:05;14.25;;;8.05;;
46765;SDS011;32527;51.986;5.842;2023-07-31T10:50:33;12.18;;;7.78;;
46765;SDS011;32527;51.986;5.842;2023-07-31T10:53:03;8.88;;;6.95;;
46765;SDS011;32527;51.986;5.842;2023-07-31T10:55:39;13.23;;;7.45;;
46765;SDS011;32527;51.986;5.842;2023-07-31T10:58:07;9.13;;;7.90;;
46765;SDS011;32527;51.986;5.842;2023-07-31T11:00:38;10.32;;;8.25;;
46765;SDS011;32527;51.986;5.842;2023-07-31T11:03:08;8.18;;;6.97;;
46765;SDS011;32527;51.986;5.842;2023-07-31T11:10:39;8.93;;;7.38;;
46765;SDS011;32527;51.986;5.842;2023-07-31T11:13:05;8.23;;;7.13;;
46765;SDS011;32527;51.986;5.842;2023-07-31T11:15:31;11.07;;;8.65;;
46765;SDS011;32527;51.986;5.842;2023-07-31T11:17:57;8.98;;;7.60;;
46765;SDS011;32527;51.986;5.842;2023-07-31T11:20:24;8.25;;;7.30;;
46765;SDS011;32527;51.986;5.842;2023-07-31T11:22:50;7.40;;;6.68;;
46765;SDS011;32527;51.986;5.842;2023-07-31T11:25:16;9.27;;;8.48;;
46765;SDS011;32527;51.986;5.842;2023-07-31T11:27:42;8.38;;;6.55;;
46765;SDS011;32527;51.986;5.842;2023-07-31T11:30:09;8.35;;;7.47;;
46765;SDS011;32527;51.986;5.842;2023-07-31T11:32:38;9.65;;;7.95;;
46765;SDS011;32527;51.986;5.842;2023-07-31T11:35:04;7.13;;;6.53;;
46765;SDS011;32527;51.986;5.842;2023-07-31T11:37:40;8.80;;;7.15;;
46765;SDS011;32527;51.986;5.842;2023-07-31T11:40:07;8.98;;;7.80;;
46765;SDS011;32527;51.986;5.842;2023-07-31T11:42:34;12.10;;;10.85;;
46765;SDS011;32527;51.986;5.842;2023-07-31T11:45:04;8.43;;;7.63;;
46765;SDS011;32527;51.986;5.842;2023-07-31T11:47:32;9.63;;;7.35;;
46765;SDS011;32527;51.986;5.842;2023-07-31T11:50:01;9.63;;;7.95;;
46765;SDS011;32527;51.986;5.842;2023-07-31T11:52:38;7.35;;;6.65;;
46765;SDS011;32527;51.986;5.842;2023-07-31T11:55:07;9.18;;;6.70;;
46765;SDS011;32527;51.986;5.842;2023-07-31T11:57:35;9.48;;;7.25;;
46765;SDS011;32527;51.986;5.842;2023-07-31T12:00:02;9.35;;;7.03;;
46765;SDS011;32527;51.986;5.842;2023-07-31T12:02:29;9.45;;;8.23;;
46765;SDS011;32527;51.986;5.842;2023-07-31T12:04:55;9.80;;;7.00;;
46765;SDS011;32527;51.986;5.842;2023-07-31T12:07:23;7.90;;;6.53;;
46765;SDS011;32527;51.986;5.842;2023-07-31T12:09:53;10.43;;;8.60;;
46765;SDS011;32527;51.986;5.842;2023-07-31T12:12:20;10.68;;;6.68;;
46765;SDS011;32527;51.986;5.842;2023-07-31T12:14:47;7.50;;;6.70;;
46765;SDS011;32527;51.986;5.842;2023-07-31T12:17:13;8.07;;;6.70;;
46765;SDS011;32527;51.986;5.842;2023-07-31T12:19:39;8.27;;;6.95;;
46765;SDS011;32527;51.986;5.842;2023-07-31T12:22:12;8.60;;;7.80;;
46765;SDS011;32527;51.986;5.842;2023-07-31T12:24:39;9.25;;;8.23;;
46765;SDS011;32527;51.986;5.842;2023-07-31T12:27:14;7.90;;;7.20;;
46765;SDS011;32527;51.986;5.842;2023-07-31T12:29:43;7.63;;;6.82;;
46765;SDS011;32527;51.986;5.842;2023-07-31T12:32:21;8.63;;;7.80;;
46765;SDS011;32527;51.986;5.842;2023-07-31T12:34:49;7.40;;;6.70;;
46765;SDS011;32527;51.986;5.842;2023-07-31T12:37:15;7.35;;;6.60;;
46765;SDS011;32527;51.986;5.842;2023-07-31T12:39:41;7.18;;;6.38;;
46765;SDS011;32527;51.986;5.842;2023-07-31T12:42:07;8.02;;;7.18;;
46765;SDS011;32527;51.986;5.842;2023-07-31T12:44:33;10.18;;;6.65;;
46765;SDS011;32527;51.986;5.842;2023-07-31T12:46:59;6.53;;;5.88;;
46765;SDS011;32527;51.986;5.842;2023-07-31T12:49:25;15.13;;;7.20;;
46765;SDS011;32527;51.986;5.842;2023-07-31T12:51:51;7.80;;;7.00;;
46765;SDS011;32527;51.986;5.842;2023-07-31T12:54:19;7.32;;;6.57;;
46765;SDS011;32527;51.986;5.842;2023-07-31T12:56:45;7.10;;;6.40;;
46765;SDS011;32527;51.986;5.842;2023-07-31T12:59:11;9.90;;;6.22;;
46765;SDS011;32527;51.986;5.842;2023-07-31T13:01:37;9.85;;;6.18;;
46765;SDS011;32527;51.986;5.842;2023-07-31T13:04:03;7.93;;;6.60;;
46765;SDS011;32527;51.986;5.842;2023-07-31T13:06:29;8.15;;;7.15;;
46765;SDS011;32527;51.986;5.842;2023-07-31T13:08:55;8.55;;;7.43;;
46765;SDS011;32527;51.986;5.842;2023-07-31T13:11:21;9.60;;;7.22;;
46765;SDS011;32527;51.986;5.842;2023-07-31T13:13:47;7.47;;;6.68;;
46765;SDS011;32527;51.986;5.842;2023-07-31T13:16:13;7.80;;;6.40;;
46765;SDS011;32527;51.986;5.842;2023-07-31T13:18:39;7.07;;;6.43;;
46765;SDS011;32527;51.986;5.842;2023-07-31T13:21:05;9.88;;;7.18;;
46765;SDS011;32527;51.986;5.842;2023-07-31T13:23:32;8.10;;;7.10;;
46765;SDS011;32527;51.986;5.842;2023-07-31T13:25:58;8.23;;;7.45;;
46765;SDS011;32527;51.986;5.842;2023-07-31T13:28:24;7.47;;;6.70;;
46765;SDS011;32527;51.986;5.842;2023-07-31T13:30:50;8.73;;;6.93;;
46765;SDS011;32527;51.986;5.842;2023-07-31T13:33:16;10.85;;;7.40;;
46765;SDS011;32527;51.986;5.842;2023-07-31T13:35:42;7.82;;;6.95;;
46765;SDS011;32527;51.986;5.842;2023-07-31T13:38:08;7.43;;;6.82;;
46765;SDS011;32527;51.986;5.842;2023-07-31T13:40:34;8.90;;;7.55;;
46765;SDS011;32527;51.986;5.842;2023-07-31T13:43:00;8.07;;;7.30;;
46765;SDS011;32527;51.986;5.842;2023-07-31T13:45:26;7.95;;;7.15;;
46765;SDS011;32527;51.986;5.842;2023-07-31T13:47:53;8.55;;;7.50;;
46765;SDS011;32527;51.986;5.842;2023-07-31T13:50:19;7.57;;;6.82;;
46765;SDS011;32527;51.986;5.842;2023-07-31T13:52:47;7.22;;;6.18;;
46765;SDS011;32527;51.986;5.842;2023-07-31T13:55:13;7.70;;;7.00;;
46765;SDS011;32527;51.986;5.842;2023-07-31T13:57:39;7.57;;;6.68;;
46765;SDS011;32527;51.986;5.842;2023-07-31T14:00:05;7.80;;;7.00;;
46765;SDS011;32527;51.986;5.842;2023-07-31T14:02:32;6.90;;;6.28;;
46765;SDS011;32527;51.986;5.842;2023-07-31T14:04:58;11.85;;;8.52;;
46765;SDS011;32527;51.986;5.842;2023-07-31T14:07:24;7.93;;;6.57;;
46765;SDS011;32527;51.986;5.842;2023-07-31T14:09:50;7.47;;;6.35;;
46765;SDS011;32527;51.986;5.842;2023-07-31T14:12:16;7.07;;;6.47;;
46765;SDS011;32527;51.986;5.842;2023-07-31T14:14:42;6.93;;;6.28;;
46765;SDS011;32527;51.986;5.842;2023-07-31T14:17:08;8.13;;;6.53;;
46765;SDS011;32527;51.986;5.842;2023-07-31T14:19:34;8.63;;;7.72;;
46765;SDS011;32527;51.986;5.842;2023-07-31T14:22:00;8.82;;;7.57;;
46765;SDS011;32527;51.986;5.842;2023-07-31T14:24:26;12.90;;;6.90;;
46765;SDS011;32527;51.986;5.842;2023-07-31T14:26:52;8.77;;;7.43;;
46765;SDS011;32527;51.986;5.842;2023-07-31T14:29:18;10.77;;;7.40;;
46765;SDS011;32527;51.986;5.842;2023-07-31T14:31:44;10.90;;;7.05;;
46765;SDS011;32527;51.986;5.842;2023-07-31T14:34:10;7.40;;;6.60;;
46765;SDS011;32527;51.986;5.842;2023-07-31T14:36:36;8.13;;;6.70;;
46765;SDS011;32527;51.986;5.842;2023-07-31T14:39:03;11.68;;;6.60;;
46765;SDS011;32527;51.986;5.842;2023-07-31T14:41:29;8.52;;;6.53;;
46765;SDS011;32527;51.986;5.842;2023-07-31T14:43:55;11.32;;;7.07;;
46765;SDS011;32527;51.986;5.842;2023-07-31T14:46:21;9.48;;;7.22;;
46765;SDS011;32527;51.986;5.842;2023-07-31T14:48:47;8.98;;;7.22;;
46765;SDS011;32527;51.986;5.842;2023-07-31T14:51:13;8.50;;;6.88;;
46765;SDS011;32527;51.986;5.842;2023-07-31T14:53:39;13.15;;;7.40;;